createdAt,value
2024-04-25T00:00:55.221Z,88.70
2024-04-25T00:03:22.446Z,88.38
2024-04-25T00:05:49.820Z,87.72
2024-04-25T00:08:16.952Z,88.08
2024-04-25T00:10:44.365Z,88.50
2024-04-25T00:13:11.372Z,87.87
2024-04-25T00:15:39.056Z,87.61
2024-04-25T00:18:06.240Z,87.79
2024-04-25T00:20:33.425Z,87.83
2024-04-25T00:23:00.496Z,87.44
2024-04-25T00:25:27.578Z,87.45
2024-04-25T00:27:55.442Z,87.25
2024-04-25T00:30:22.663Z,87.24
2024-04-25T00:32:50.667Z,87.08
2024-04-25T00:35:17.738Z,87.11
2024-04-25T00:37:45.088Z,86.92
2024-04-25T00:40:12.424Z,86.85
2024-04-25T00:42:39.438Z,86.65
2024-04-25T00:45:06.593Z,86.74
2024-04-25T00:47:34.317Z,86.48
2024-04-25T00:50:02.098Z,86.91
2024-04-25T00:52:29.827Z,86.91
2024-04-25T00:54:57.024Z,86.89
2024-04-25T00:57:25.412Z,86.92
2024-04-25T00:59:58.480Z,86.90
2024-04-25T01:02:27.832Z,86.91
2024-04-25T01:04:56.638Z,87.09
2024-04-25T01:07:23.757Z,87.07
2024-04-25T01:09:50.770Z,86.96
2024-04-25T01:12:19.165Z,87.10
2024-04-25T01:14:46.249Z,87.32
2024-04-25T01:17:13.356Z,87.98
2024-04-25T01:19:40.449Z,88.11
2024-04-25T01:22:08.147Z,88.04
2024-04-25T01:24:35.513Z,88.83
2024-04-25T01:27:04.914Z,88.86
2024-04-25T01:29:33.685Z,88.43
2024-04-25T01:32:01.256Z,88.31
2024-04-25T01:34:28.288Z,88.53
2024-04-25T01:36:55.375Z,87.70
2024-04-25T01:39:22.441Z,87.01
2024-04-25T01:41:49.423Z,85.67
2024-04-25T01:44:16.466Z,84.47
2024-04-25T01:46:43.960Z,84.30
2024-04-25T01:49:11.218Z,85.08
2024-04-25T01:51:38.329Z,85.40
2024-04-25T01:54:05.385Z,84.74
2024-04-25T01:56:35.434Z,85.28
2024-04-25T01:59:04.128Z,85.80
2024-04-25T02:01:31.351Z,85.89
2024-04-25T02:03:58.399Z,85.76
2024-04-25T02:06:25.437Z,86.13
2024-04-25T02:08:52.643Z,86.39
2024-04-25T02:11:20.145Z,86.26
2024-04-25T02:13:47.257Z,86.49
2024-04-25T02:16:14.257Z,86.47
2024-04-25T02:18:41.363Z,86.95
2024-04-25T02:21:27.281Z,86.54
2024-04-25T02:24:13.133Z,86.83
2024-04-25T02:26:42.521Z,86.79
2024-04-25T02:29:09.661Z,86.94
2024-04-25T02:31:41.305Z,86.69
2024-04-25T02:34:08.329Z,86.34
2024-04-25T02:36:38.135Z,86.31
2024-04-25T02:39:05.684Z,86.60
2024-04-25T02:41:32.728Z,85.84
2024-04-25T02:43:59.788Z,85.21
2024-04-25T02:46:26.833Z,85.88
2024-04-25T02:48:55.167Z,85.51
2024-04-25T02:51:22.395Z,85.88
2024-04-25T02:53:49.448Z,85.61
2024-04-25T02:56:17.778Z,85.82
2024-04-25T02:58:45.055Z,85.92
2024-04-25T03:01:12.101Z,86.59
2024-04-25T03:03:39.347Z,86.44
2024-04-25T03:06:07.063Z,86.61
2024-04-25T03:08:34.197Z,86.79
2024-04-25T03:11:05.145Z,87.25
2024-04-25T03:13:32.687Z,87.66
2024-04-25T03:16:04.161Z,88.69
2024-04-25T03:18:32.085Z,89.14
2024-04-25T03:21:06.829Z,89.36
2024-04-25T03:23:36.540Z,89.15
2024-04-25T03:26:07.603Z,89.54
2024-04-25T03:28:35.241Z,89.36
2024-04-25T03:31:02.708Z,87.92
2024-04-25T03:33:30.020Z,86.74
2024-04-25T03:35:57.284Z,86.62
2024-04-25T03:38:24.501Z,85.21
2024-04-25T03:40:51.766Z,83.90
2024-04-25T03:43:19.075Z,83.78
2024-04-25T03:45:46.189Z,83.46
2024-04-25T03:48:13.534Z,82.86
2024-04-25T03:50:40.927Z,82.17
2024-04-25T03:53:10.382Z,82.47
2024-04-25T03:55:38.797Z,83.12
2024-04-25T03:58:05.851Z,83.12
2024-04-25T04:00:32.904Z,82.95
2024-04-25T04:03:00.092Z,83.47
2024-04-25T04:05:27.360Z,84.04
2024-04-25T04:07:54.883Z,84.72
2024-04-25T04:10:21.954Z,85.54
2024-04-25T04:12:49.520Z,85.25
2024-04-25T04:15:20.060Z,85.10
2024-04-25T04:17:48.090Z,84.42
2024-04-25T04:20:15.485Z,84.16
2024-04-25T04:22:42.576Z,82.73
2024-04-25T04:25:11.099Z,82.97
2024-04-25T04:27:38.367Z,82.63
2024-04-25T04:30:06.469Z,82.29
2024-04-25T04:32:33.837Z,81.08
2024-04-25T04:35:01.122Z,81.05
2024-04-25T04:37:28.200Z,81.72
2024-04-25T04:39:55.295Z,81.23
2024-04-25T04:42:22.443Z,80.49
2024-04-25T04:44:50.343Z,79.85
2024-04-25T04:47:17.966Z,80.01
2024-04-25T04:49:45.026Z,79.97
2024-04-25T04:52:12.115Z,79.68
2024-04-25T04:54:39.262Z,78.12
2024-04-25T04:57:06.358Z,78.69
2024-04-25T04:59:33.473Z,78.12
2024-04-25T05:02:00.749Z,78.01
2024-04-25T05:04:28.061Z,77.98
2024-04-25T05:06:56.113Z,77.74
2024-04-25T05:09:23.346Z,77.10
2024-04-25T05:11:50.561Z,77.08
2024-04-25T05:14:17.771Z,78.01
2024-04-25T05:16:45.398Z,77.92
2024-04-25T05:19:12.407Z,76.70
2024-04-25T05:21:39.565Z,76.26
2024-04-25T05:24:06.852Z,77.40
2024-04-25T05:26:36.042Z,77.39
2024-04-25T05:29:04.079Z,78.29
2024-04-25T05:31:33.499Z,77.46
2024-04-25T05:34:00.571Z,77.60
2024-04-25T05:36:27.760Z,76.83
2024-04-25T05:38:54.821Z,77.33
2024-04-25T05:41:21.990Z,77.75
2024-04-25T05:43:49.265Z,76.66
2024-04-25T05:46:16.963Z,77.46
2024-04-25T05:48:44.309Z,77.96
2024-04-25T05:51:17.825Z,78.42
2024-04-25T05:53:45.052Z,78.93
2024-04-25T05:56:12.628Z,79.15
2024-04-25T05:58:43.336Z,78.36
2024-04-25T06:01:10.484Z,78.09
2024-04-25T06:03:37.796Z,78.48
2024-04-25T06:06:05.114Z,78.74
2024-04-25T06:08:32.241Z,78.80
2024-04-25T06:10:59.392Z,78.54
2024-04-25T06:13:26.762Z,78.99
2024-04-25T06:15:53.837Z,79.13
2024-04-25T06:18:20.960Z,79.09
2024-04-25T06:20:48.174Z,79.21
2024-04-25T06:23:16.214Z,79.57
2024-04-25T06:25:44.953Z,79.64
2024-04-25T06:28:13.403Z,79.11
2024-04-25T06:30:40.533Z,78.79
2024-04-25T06:33:07.763Z,78.69
2024-04-25T06:35:34.928Z,77.76
2024-04-25T06:38:02.816Z,77.87
2024-04-25T06:40:29.961Z,78.52
2024-04-25T06:42:57.276Z,78.02
2024-04-25T06:45:24.451Z,77.71
2024-04-25T06:47:51.807Z,78.41
2024-04-25T06:50:19.133Z,77.34
2024-04-25T06:52:46.292Z,76.41
2024-04-25T06:55:13.682Z,76.08
2024-04-25T06:57:40.767Z,76.92
2024-04-25T07:00:08.606Z,76.66
2024-04-25T07:02:35.694Z,78.10
2024-04-25T07:05:04.176Z,77.71
2024-04-25T07:07:31.378Z,77.59
2024-04-25T07:09:58.521Z,77.52
2024-04-25T07:12:25.657Z,76.69
2024-04-25T07:14:52.836Z,76.98
2024-04-25T07:17:19.980Z,77.44
2024-04-25T07:19:47.212Z,76.34
2024-04-25T07:22:14.346Z,76.40
2024-04-25T07:24:41.449Z,75.36
2024-04-25T07:27:08.677Z,74.67
2024-04-25T07:29:36.331Z,74.67
2024-04-25T07:32:05.123Z,73.97
2024-04-25T07:34:32.591Z,73.60
2024-04-25T07:36:59.698Z,72.99
2024-04-25T07:39:26.970Z,72.00
2024-04-25T07:41:54.201Z,71.02
2024-04-25T07:44:21.462Z,70.94
2024-04-25T07:46:48.814Z,71.81
2024-04-25T07:49:18.591Z,72.47
2024-04-25T07:51:46.607Z,72.24
2024-04-25T07:54:13.926Z,71.55
2024-04-25T07:56:41.096Z,73.35
2024-04-25T07:59:08.272Z,73.41
2024-04-25T08:01:35.482Z,73.23
2024-04-25T08:04:02.647Z,73.73
2024-04-25T08:06:29.873Z,73.92
2024-04-25T08:08:57.079Z,73.24
2024-04-25T08:11:24.263Z,72.66
2024-04-25T08:13:51.403Z,72.53
2024-04-25T08:16:18.509Z,73.32
2024-04-25T08:18:45.768Z,70.85
2024-04-25T08:21:13.201Z,71.41
2024-04-25T08:23:40.354Z,71.15
2024-04-25T08:26:08.211Z,70.55
2024-04-25T08:28:35.637Z,71.12
2024-04-25T08:31:02.855Z,70.38
2024-04-25T08:33:30.278Z,69.30
2024-04-25T08:35:57.544Z,69.78
2024-04-25T08:38:25.781Z,70.54
2024-04-25T08:40:53.654Z,68.80
2024-04-25T08:43:21.820Z,69.90
2024-04-25T08:45:50.854Z,69.21
2024-04-25T08:48:20.220Z,67.33
2024-04-25T08:50:49.811Z,67.82
2024-04-25T08:53:19.186Z,66.81
2024-04-25T08:55:46.561Z,66.11
2024-04-25T08:58:16.282Z,67.07
2024-04-25T09:00:43.735Z,66.43
2024-04-25T09:03:15.213Z,66.62
2024-04-25T09:05:42.526Z,66.78
2024-04-25T09:08:14.034Z,66.00
2024-04-25T09:10:42.764Z,65.84
2024-04-25T09:13:10.562Z,64.98
2024-04-25T09:15:37.750Z,65.82
2024-04-25T09:18:05.295Z,65.83
2024-04-25T09:20:32.888Z,64.93
2024-04-25T09:23:04.294Z,64.60
2024-04-25T09:25:33.785Z,64.20
2024-04-25T09:28:03.860Z,66.10
2024-04-25T09:30:34.188Z,64.91
2024-04-25T09:33:05.278Z,65.30
2024-04-25T09:35:40.904Z,66.04
2024-04-25T09:38:08.024Z,67.42
2024-04-25T09:40:35.130Z,65.35
2024-04-25T09:43:02.618Z,65.19
2024-04-25T09:45:31.892Z,63.80
2024-04-25T09:48:08.354Z,63.67
2024-04-25T09:50:41.912Z,64.67
2024-04-25T09:53:15.388Z,66.09
2024-04-25T09:55:46.142Z,63.39
2024-04-25T09:58:43.810Z,63.00
2024-04-25T10:01:11.874Z,63.17
2024-04-25T10:03:39.549Z,62.87
2024-04-25T10:06:07.080Z,64.22
2024-04-25T10:08:36.863Z,63.90
2024-04-25T10:11:10.366Z,62.97
2024-04-25T10:13:51.030Z,63.42
2024-04-25T10:16:22.719Z,63.23
2024-04-25T10:18:51.042Z,62.24
2024-04-25T10:21:18.777Z,61.18
2024-04-25T10:23:47.361Z,61.39
2024-04-25T10:26:21.231Z,60.56
2024-04-25T10:29:05.394Z,61.38
2024-04-25T10:31:40.718Z,63.26
2024-04-25T10:34:09.143Z,62.86
2024-04-25T10:41:52.772Z,65.47
2024-04-25T14:16:18.838Z,59.11
2024-04-25T14:19:05.040Z,58.34
2024-04-25T14:21:58.474Z,59.07
2024-04-25T14:24:47.286Z,58.16
2024-04-25T14:27:51.735Z,59.32
2024-04-25T14:30:37.829Z,59.86
2024-04-25T14:33:25.207Z,58.81
2024-04-25T14:36:11.776Z,53.90
2024-04-25T14:38:58.095Z,53.47
2024-04-25T14:41:44.046Z,54.96
2024-04-25T14:44:30.252Z,54.68
2024-04-25T14:47:16.492Z,55.86
2024-04-25T14:50:02.638Z,56.54
2024-04-25T14:52:48.776Z,57.71
2024-04-25T14:55:34.502Z,57.79
2024-04-25T14:58:20.761Z,57.50
2024-04-25T15:01:06.541Z,59.53
2024-04-25T15:03:52.606Z,59.29
2024-04-25T15:06:40.875Z,60.30
2024-04-25T15:09:26.632Z,61.33
2024-04-25T15:12:12.437Z,62.25
2024-04-25T15:15:08.023Z,62.35
2024-04-25T15:17:58.538Z,62.67
2024-04-25T15:20:44.774Z,62.07
2024-04-25T15:23:30.686Z,61.49
2024-04-25T15:26:17.073Z,60.74
2024-04-25T15:29:03.863Z,60.47
2024-04-25T15:31:51.236Z,59.89
2024-04-25T15:34:36.770Z,59.33
2024-04-25T15:37:22.238Z,59.37
2024-04-25T15:43:09.814Z,60.13
2024-04-25T15:55:03.943Z,64.02
2024-04-25T15:58:13.662Z,64.00
2024-04-25T16:01:10.447Z,64.27
2024-04-25T16:07:25.902Z,66.25
2024-04-25T16:10:20.405Z,66.83
2024-04-25T16:13:20.030Z,66.13
2024-04-25T16:19:19.605Z,66.14
2024-04-25T16:22:06.807Z,65.70
2024-04-25T16:24:56.171Z,65.89
2024-04-25T16:36:45.559Z,66.08
2024-04-25T16:39:32.847Z,65.75
2024-04-25T16:45:27.517Z,65.74
2024-04-25T16:48:17.718Z,66.90
2024-04-25T16:51:06.933Z,66.86
2024-04-25T17:03:09.413Z,66.19
2024-04-25T17:15:01.076Z,68.38
2024-04-25T17:17:49.073Z,68.56
2024-04-25T17:20:34.646Z,69.14
2024-04-25T17:23:22.197Z,68.50
2024-04-25T17:26:09.765Z,68.35
2024-04-25T17:28:57.625Z,68.32
2024-04-25T17:31:47.676Z,68.85
2024-04-25T17:34:33.442Z,68.59
2024-04-25T17:37:19.354Z,68.88
2024-04-25T17:40:06.243Z,68.84
2024-04-25T17:42:52.166Z,68.43
2024-04-25T17:45:38.211Z,68.18
2024-04-25T17:48:27.826Z,68.42
2024-04-25T17:51:23.499Z,69.00
2024-04-25T17:54:12.703Z,69.34
2024-04-25T17:56:58.471Z,69.89
2024-04-25T17:59:44.536Z,70.23
2024-04-25T18:02:33.457Z,71.00
2024-04-25T18:05:19.337Z,71.83
2024-04-25T18:08:08.354Z,71.96
2024-04-25T18:10:55.697Z,71.64
2024-04-25T18:13:43.074Z,71.96
2024-04-25T18:16:29.084Z,71.59
2024-04-25T18:19:15.405Z,71.56
2024-04-25T18:22:03.288Z,71.23
2024-04-25T18:24:49.615Z,71.19
2024-04-25T18:27:37.732Z,70.78
2024-04-25T18:30:25.051Z,70.75
2024-04-25T18:33:10.795Z,70.52
2024-04-25T18:35:57.197Z,70.75
2024-04-25T18:38:43.306Z,70.75
2024-04-25T18:41:29.261Z,70.90
2024-04-25T18:44:15.198Z,70.90
2024-04-25T18:47:00.798Z,70.84
2024-04-25T18:49:46.928Z,71.28
2024-04-25T18:52:32.829Z,71.20
2024-04-25T18:55:18.745Z,71.30
2024-04-25T18:58:04.209Z,71.57
2024-04-25T19:00:49.842Z,71.52
2024-04-25T19:03:35.882Z,72.01
2024-04-25T19:06:24.653Z,72.15
2024-04-25T19:09:12.665Z,72.46
2024-04-25T19:11:59.116Z,72.65
2024-04-25T19:14:52.479Z,72.68
2024-04-25T19:17:38.077Z,73.11
2024-04-25T19:20:25.262Z,73.25
2024-04-25T19:23:11.273Z,72.96
2024-04-25T19:25:57.233Z,73.29
2024-04-25T19:28:43.482Z,73.50
2024-04-25T19:31:29.533Z,74.08
2024-04-25T19:34:22.018Z,74.24
2024-04-25T19:36:52.337Z,74.72
2024-04-25T19:39:20.662Z,74.64
2024-04-25T19:41:50.437Z,74.82
2024-04-25T19:44:20.311Z,75.43
2024-04-25T19:46:48.231Z,75.53
2024-04-25T19:49:19.760Z,74.88
2024-04-25T19:51:48.953Z,74.63
2024-04-25T19:54:19.978Z,74.82
2024-04-25T19:56:51.125Z,74.93
2024-04-25T19:59:19.120Z,75.24
2024-04-25T20:01:52.638Z,75.91
2024-04-25T20:04:22.812Z,76.52
2024-04-25T20:06:51.308Z,77.01
2024-04-25T20:09:20.288Z,76.97
2024-04-25T20:11:48.340Z,77.01
2024-04-25T20:14:16.255Z,76.91
2024-04-25T20:16:45.516Z,76.41
2024-04-25T20:19:52.153Z,76.75
2024-04-25T20:22:19.965Z,77.22
2024-04-25T20:24:49.501Z,77.79
2024-04-25T20:27:17.352Z,78.21
2024-04-25T20:29:45.147Z,78.84
2024-04-25T20:32:12.936Z,79.29
2024-04-25T20:34:40.677Z,79.73
2024-04-25T20:37:08.386Z,79.93
2024-04-25T20:39:37.108Z,80.19
2024-04-25T20:42:04.899Z,80.29
2024-04-25T20:44:32.738Z,80.35
2024-04-25T20:47:00.605Z,80.12
2024-04-25T20:49:28.422Z,79.84
2024-04-25T20:51:58.150Z,79.63
2024-04-25T20:54:26.017Z,79.58
2024-04-25T20:56:53.861Z,79.58
2024-04-25T20:59:21.668Z,79.87
2024-04-25T21:01:49.428Z,80.03
2024-04-25T21:04:17.225Z,80.33
2024-04-25T21:06:47.758Z,80.35
2024-04-25T21:09:18.778Z,79.71
2024-04-25T21:11:47.276Z,79.18
2024-04-25T21:14:15.051Z,79.26
2024-04-25T21:16:44.332Z,78.85
2024-04-25T21:19:12.328Z,78.56
2024-04-25T21:21:45.675Z,78.52
2024-04-25T21:24:16.716Z,78.51
2024-04-25T21:26:48.529Z,78.42
2024-04-25T21:29:16.623Z,78.76
2024-04-25T21:31:44.864Z,78.67
2024-04-25T21:34:13.010Z,78.71
2024-04-25T21:36:41.164Z,78.88
2024-04-25T21:39:09.068Z,79.46
2024-04-25T21:41:44.163Z,80.22
2024-04-25T21:44:13.581Z,80.05
2024-04-25T21:46:42.721Z,80.21
2024-04-25T21:49:11.126Z,80.37
2024-04-25T21:51:43.925Z,80.35
2024-04-25T21:54:12.681Z,80.28
2024-04-25T21:56:40.534Z,80.12
2024-04-25T21:59:08.398Z,79.76
2024-04-25T22:01:36.255Z,79.37
2024-04-25T22:04:04.222Z,79.58
2024-04-25T22:06:32.052Z,79.82
2024-04-25T22:08:59.856Z,80.46
2024-04-25T22:11:28.001Z,81.89
2024-04-25T22:13:55.790Z,82.51
2024-04-25T22:16:23.556Z,82.48
2024-04-25T22:18:51.943Z,81.99
2024-04-25T22:21:20.926Z,81.30
2024-04-25T22:23:48.814Z,80.62
2024-04-25T22:26:16.738Z,80.19
2024-04-25T22:28:44.618Z,80.14
2024-04-25T22:31:12.525Z,80.41
2024-04-25T22:33:40.390Z,80.39
2024-04-25T22:36:10.182Z,80.58
2024-04-25T22:38:38.088Z,80.24
2024-04-25T22:41:05.984Z,80.68
2024-04-25T22:43:33.968Z,80.70
2024-04-25T22:46:01.739Z,81.39
2024-04-25T22:48:29.556Z,81.24
2024-04-25T22:50:57.413Z,81.07
2024-04-25T22:53:25.219Z,80.51
2024-04-25T22:55:52.995Z,80.74
2024-04-25T22:58:20.714Z,80.83
2024-04-25T23:00:48.589Z,81.03
2024-04-25T23:03:16.381Z,80.73
2024-04-25T23:05:44.156Z,80.84
2024-04-25T23:08:12.039Z,81.04
2024-04-25T23:10:39.832Z,80.88
2024-04-25T23:13:07.596Z,81.00
2024-04-25T23:15:35.353Z,80.65
2024-04-25T23:18:03.206Z,80.90
2024-04-25T23:20:31.020Z,81.23
2024-04-25T23:22:59.010Z,81.12
2024-04-25T23:25:26.756Z,81.25
2024-04-25T23:27:54.549Z,81.04
2024-04-25T23:30:22.715Z,81.14
2024-04-25T23:32:50.644Z,81.46
2024-04-25T23:35:18.505Z,81.07
2024-04-25T23:37:46.252Z,80.97
2024-04-25T23:40:14.075Z,80.73
2024-04-25T23:42:41.968Z,80.41
2024-04-25T23:45:09.828Z,80.49
2024-04-25T23:47:37.662Z,79.83
2024-04-25T23:50:06.101Z,80.32
2024-04-25T23:52:33.915Z,80.22
2024-04-25T23:55:01.741Z,80.68
2024-04-25T23:57:29.482Z,80.64
2024-04-25T23:59:57.310Z,80.85
